createdAt,value
2019-03-02T00:00:25.888Z,3.97
2019-03-02T00:01:25.865Z,3.90
2019-03-02T00:02:25.816Z,3.90
2019-03-02T00:03:25.736Z,3.98
2019-03-02T00:04:25.707Z,3.96
2019-03-02T00:05:25.655Z,3.94
2019-03-02T00:06:25.612Z,3.90
2019-03-02T00:07:25.572Z,3.98
2019-03-02T00:08:26.136Z,3.94
2019-03-02T00:09:25.514Z,3.96
2019-03-02T00:10:25.493Z,3.94
2019-03-02T00:11:25.445Z,3.88
2019-03-02T00:12:28.722Z,3.96
2019-03-02T00:13:26.774Z,3.91
2019-03-02T00:14:25.297Z,3.90
2019-03-02T00:15:27.052Z,3.87
2019-03-02T00:16:25.206Z,3.87
2019-03-02T00:17:25.178Z,3.90
2019-03-02T00:18:25.923Z,3.84
2019-03-02T00:19:25.091Z,3.84
2019-03-02T00:20:25.057Z,3.79
2019-03-02T00:21:27.657Z,3.79
2019-03-02T00:22:24.961Z,3.84
2019-03-02T00:23:24.969Z,3.83
2019-03-02T00:24:24.889Z,3.84
2019-03-02T00:25:24.870Z,3.90
2019-03-02T00:26:24.809Z,3.79
2019-03-02T00:27:24.771Z,3.70
2019-03-02T00:28:24.733Z,3.84
2019-03-02T00:29:24.707Z,3.54
2019-03-02T00:30:24.672Z,3.68
2019-03-02T00:31:24.618Z,3.69
2019-03-02T00:32:24.574Z,3.78
2019-03-02T00:33:24.528Z,3.75
2019-03-02T00:34:24.478Z,3.76
2019-03-02T00:35:24.502Z,3.78
2019-03-02T00:36:24.434Z,3.76
2019-03-02T00:37:24.407Z,3.79
2019-03-02T00:38:24.347Z,3.84
2019-03-02T00:39:24.284Z,3.80
2019-03-02T00:40:27.171Z,3.79
2019-03-02T00:41:24.204Z,3.83
2019-03-02T00:42:24.158Z,3.84
2019-03-02T00:43:27.024Z,3.87
2019-03-02T00:44:24.117Z,3.90
2019-03-02T00:45:24.048Z,3.87
2019-03-02T00:46:24.780Z,3.72
2019-03-02T00:47:23.997Z,3.80
2019-03-02T00:48:23.968Z,3.79
2019-03-02T00:49:23.879Z,3.84
2019-03-02T00:50:23.833Z,3.86
2019-03-02T00:51:23.793Z,3.90
2019-03-02T00:52:24.384Z,3.94
2019-03-02T00:53:23.718Z,3.96
2019-03-02T00:54:23.670Z,3.97
2019-03-02T00:55:23.631Z,3.88
2019-03-02T00:56:23.596Z,3.79
2019-03-02T00:57:23.594Z,3.83
2019-03-02T00:58:25.726Z,3.80
2019-03-02T00:59:23.516Z,3.83
2019-03-02T01:00:23.441Z,3.88
2019-03-02T01:01:25.695Z,3.88
2019-03-02T01:02:23.362Z,3.96
2019-03-02T01:03:23.360Z,3.91
2019-03-02T01:04:26.039Z,3.86
2019-03-02T01:05:23.232Z,3.90
2019-03-02T01:06:23.214Z,3.90
2019-03-02T01:07:23.697Z,3.93
2019-03-02T01:08:23.125Z,3.90
2019-03-02T01:09:23.085Z,3.97
2019-03-02T01:10:23.670Z,3.93
2019-03-02T01:11:23.010Z,3.96
2019-03-02T01:12:22.957Z,3.97
2019-03-02T01:13:23.173Z,3.86
2019-03-02T01:14:22.998Z,3.98
2019-03-02T01:15:22.843Z,4.00
2019-03-02T01:16:22.799Z,3.88
2019-03-02T01:17:22.745Z,3.86
2019-03-02T01:18:22.712Z,3.78
2019-03-02T01:19:22.653Z,3.83
2019-03-02T01:20:24.820Z,3.83
2019-03-02T01:21:22.588Z,3.84
2019-03-02T01:22:22.552Z,3.80
2019-03-02T01:23:23.809Z,3.87
2019-03-02T01:24:22.501Z,3.83
2019-03-02T01:25:22.437Z,3.80
2019-03-02T01:26:23.827Z,3.86
2019-03-02T01:27:22.399Z,3.87
2019-03-02T01:28:22.317Z,3.86
2019-03-02T01:29:22.258Z,3.83
2019-03-02T01:30:22.220Z,3.87
2019-03-02T01:31:22.182Z,3.88
2019-03-02T01:32:22.146Z,3.97
2019-03-02T01:33:25.236Z,3.94
2019-03-02T01:34:22.058Z,3.88
2019-03-02T01:35:22.021Z,3.97
2019-03-02T01:36:22.060Z,3.90
2019-03-02T01:37:21.953Z,3.87
2019-03-02T01:38:21.977Z,4.02
2019-03-02T01:39:21.862Z,3.98
2019-03-02T01:40:21.887Z,3.91
2019-03-02T01:41:21.786Z,3.96
2019-03-02T01:42:21.737Z,4.02
2019-03-02T01:43:21.728Z,3.96
2019-03-02T01:44:21.659Z,4.00
2019-03-02T01:45:23.952Z,3.93
2019-03-02T01:46:21.564Z,4.08
2019-03-02T01:47:21.543Z,3.94
2019-03-02T01:48:22.956Z,3.97
2019-03-02T01:49:21.466Z,4.02
2019-03-02T01:50:21.431Z,3.94
2019-03-02T01:51:23.166Z,3.96
2019-03-02T01:52:21.334Z,4.00
2019-03-02T01:53:21.293Z,3.94
2019-03-02T01:54:22.000Z,3.96
2019-03-02T01:55:21.212Z,3.90
2019-03-02T01:56:21.191Z,3.98
2019-03-02T01:57:21.147Z,3.87
2019-03-02T01:58:21.106Z,3.98
2019-03-02T01:59:21.080Z,3.97
2019-03-02T02:00:20.999Z,3.96
2019-03-02T02:01:24.696Z,3.87
2019-03-02T02:02:20.952Z,3.90
2019-03-02T02:03:20.920Z,3.80
2019-03-02T02:04:22.698Z,3.86
2019-03-02T02:05:20.820Z,3.84
2019-03-02T02:06:20.823Z,3.83
2019-03-02T02:07:20.721Z,3.87
2019-03-02T02:08:20.695Z,3.90
2019-03-02T02:09:20.660Z,3.87
2019-03-02T02:10:20.631Z,3.94
2019-03-02T02:11:20.614Z,3.93
2019-03-02T02:12:20.536Z,3.96
2019-03-02T02:13:20.511Z,3.94
2019-03-02T02:14:20.471Z,3.87
2019-03-02T02:15:20.429Z,3.80
2019-03-02T02:16:20.381Z,3.88
2019-03-02T02:17:20.333Z,3.83
2019-03-02T02:18:20.280Z,3.80
2019-03-02T02:19:20.271Z,3.80
2019-03-02T02:20:20.238Z,3.83
2019-03-02T02:21:20.197Z,3.86
2019-03-02T02:22:20.171Z,3.86
2019-03-02T02:23:20.117Z,3.80
2019-03-02T02:24:21.821Z,3.84
2019-03-02T02:25:20.021Z,3.80
2019-03-02T02:26:19.982Z,3.87
2019-03-02T02:27:22.495Z,3.87
2019-03-02T02:28:19.897Z,3.88
2019-03-02T02:29:19.852Z,3.93
2019-03-02T02:30:24.679Z,3.87
2019-03-02T02:31:19.792Z,3.88
2019-03-02T02:32:23.922Z,3.98
2019-03-02T02:33:19.686Z,4.02
2019-03-02T02:34:22.158Z,4.00
2019-03-02T02:35:19.604Z,3.87
2019-03-02T02:36:20.461Z,3.90
2019-03-02T02:37:19.534Z,3.87
2019-03-02T02:38:19.475Z,3.94
2019-03-02T02:39:19.447Z,3.91
2019-03-02T02:40:19.413Z,4.02
2019-03-02T02:41:23.125Z,3.93
2019-03-02T02:42:19.317Z,3.93
2019-03-02T02:43:21.048Z,3.88
2019-03-02T02:44:19.238Z,3.90
2019-03-02T02:45:19.202Z,3.88
2019-03-02T02:46:19.166Z,3.87
2019-03-02T02:47:19.139Z,4.00
2019-03-02T02:48:19.098Z,4.02
2019-03-02T02:49:19.194Z,4.05
2019-03-02T02:50:28.477Z,3.96
2019-03-02T02:51:18.977Z,3.98
2019-03-02T02:52:27.630Z,3.98
2019-03-02T02:53:18.873Z,4.00
2019-03-02T02:54:22.935Z,3.94
2019-03-02T02:55:18.803Z,3.93
2019-03-02T02:56:19.635Z,3.91
2019-03-02T02:57:18.729Z,3.86
2019-03-02T02:58:19.441Z,3.98
2019-03-02T02:59:18.621Z,3.90
2019-03-02T03:00:18.599Z,3.93
2019-03-02T03:01:18.552Z,3.91
2019-03-02T03:02:18.518Z,3.97
2019-03-02T03:03:20.887Z,3.94
2019-03-02T03:04:18.447Z,3.90
2019-03-02T03:05:18.404Z,3.93
2019-03-02T03:06:18.368Z,3.97
2019-03-02T03:07:18.318Z,3.98
2019-03-02T03:08:18.269Z,3.97
2019-03-02T03:09:18.238Z,3.97
2019-03-02T03:10:18.209Z,3.90
2019-03-02T03:11:18.151Z,3.98
2019-03-02T03:12:22.592Z,3.94
2019-03-02T03:13:18.088Z,3.96
2019-03-02T03:14:19.959Z,3.90
2019-03-02T03:15:18.024Z,3.97
2019-03-02T03:16:18.089Z,3.90
2019-03-02T03:17:17.906Z,3.91
2019-03-02T03:18:17.882Z,3.86
2019-03-02T03:19:17.833Z,3.96
2019-03-02T03:20:17.796Z,3.88
2019-03-02T03:21:17.745Z,3.94
2019-03-02T03:22:17.737Z,3.88
2019-03-02T03:23:20.137Z,3.94
2019-03-02T03:24:17.634Z,3.90
2019-03-02T03:25:18.009Z,3.91
2019-03-02T03:26:17.562Z,3.94
2019-03-02T03:27:17.525Z,3.94
2019-03-02T03:28:17.475Z,3.97
2019-03-02T03:29:17.510Z,3.98
2019-03-02T03:30:17.417Z,3.98
2019-03-02T03:31:23.097Z,3.98
2019-03-02T03:32:17.328Z,4.04
2019-03-02T03:33:17.270Z,3.98
2019-03-02T03:34:28.958Z,3.98
2019-03-02T03:35:19.471Z,3.96
2019-03-02T03:36:17.144Z,4.05
2019-03-02T03:37:17.231Z,4.00
2019-03-02T03:38:17.101Z,4.02
2019-03-02T03:39:17.027Z,3.96
2019-03-02T03:40:20.291Z,4.04
2019-03-02T03:41:16.952Z,3.98
2019-03-02T03:42:22.205Z,4.05
2019-03-02T03:43:16.869Z,4.02
2019-03-02T03:44:24.551Z,4.05
2019-03-02T03:45:16.777Z,4.05
2019-03-02T03:46:17.830Z,4.08
2019-03-02T03:47:16.706Z,4.04
2019-03-02T03:48:17.894Z,4.04
2019-03-02T03:49:16.626Z,4.11
2019-03-02T03:50:16.601Z,4.04
2019-03-02T03:51:16.547Z,4.04
2019-03-02T03:52:16.582Z,4.08
2019-03-02T03:53:16.482Z,4.06
2019-03-02T03:54:16.429Z,4.02
2019-03-02T03:55:23.788Z,3.98
2019-03-02T03:56:16.342Z,4.00
2019-03-02T03:57:17.128Z,3.97
2019-03-02T03:58:16.322Z,4.00
2019-03-02T03:59:18.974Z,3.97
2019-03-02T04:00:16.193Z,3.94
2019-03-02T04:01:17.843Z,3.96
2019-03-02T04:02:16.121Z,3.97
2019-03-02T04:03:16.084Z,3.88
2019-03-02T04:04:16.019Z,3.87
2019-03-02T04:05:15.990Z,3.90
2019-03-02T04:06:15.957Z,3.94
2019-03-02T04:07:15.906Z,3.97
2019-03-02T04:08:15.859Z,4.02
2019-03-02T04:09:15.826Z,3.98
2019-03-02T04:10:24.769Z,3.94
2019-03-02T04:11:15.747Z,4.00
2019-03-02T04:12:19.860Z,4.02
2019-03-02T04:13:15.658Z,4.00
2019-03-02T04:14:19.162Z,3.98
2019-03-02T04:15:15.603Z,3.98
2019-03-02T04:16:16.139Z,4.04
2019-03-02T04:17:15.516Z,4.00
2019-03-02T04:18:16.324Z,4.05
2019-03-02T04:19:15.424Z,4.05
2019-03-02T04:20:15.463Z,4.02
2019-03-02T04:21:15.334Z,4.00
2019-03-02T04:22:15.311Z,4.08
2019-03-02T04:23:18.014Z,4.02
2019-03-02T04:24:15.241Z,4.05
2019-03-02T04:25:17.995Z,4.00
2019-03-02T04:26:15.134Z,3.98
2019-03-02T04:27:16.832Z,4.00
2019-03-02T04:28:15.060Z,3.97
2019-03-02T04:29:15.024Z,3.94
2019-03-02T04:30:14.982Z,3.93
2019-03-02T04:31:14.927Z,3.94
2019-03-02T04:32:14.886Z,3.96
2019-03-02T04:33:14.865Z,3.91
2019-03-02T04:34:20.168Z,3.91
2019-03-02T04:35:14.768Z,3.96
2019-03-02T04:36:14.734Z,3.97
2019-03-02T04:37:14.687Z,3.98
2019-03-02T04:38:14.657Z,3.97
2019-03-02T04:39:15.062Z,3.97
2019-03-02T04:40:14.592Z,3.93
2019-03-02T04:41:14.527Z,3.91
2019-03-02T04:42:14.661Z,3.98
2019-03-02T04:43:14.447Z,3.91
2019-03-02T04:44:14.415Z,3.90
2019-03-02T04:45:14.370Z,3.91
2019-03-02T04:46:15.384Z,3.93
2019-03-02T04:47:14.289Z,3.96
2019-03-02T04:48:14.316Z,3.98
2019-03-02T04:49:14.583Z,3.97
2019-03-02T04:50:14.203Z,3.98
2019-03-02T04:51:14.128Z,4.02
2019-03-02T04:52:14.525Z,4.00
2019-03-02T04:53:14.079Z,3.97
2019-03-02T04:54:14.014Z,3.98
2019-03-02T04:55:14.810Z,3.94
2019-03-02T04:56:13.926Z,3.97
2019-03-02T04:57:13.893Z,3.96
2019-03-02T04:58:13.842Z,3.98
2019-03-02T04:59:13.810Z,3.90
2019-03-02T05:00:13.774Z,3.96
2019-03-02T05:01:13.732Z,3.84
2019-03-02T05:02:16.701Z,3.88
2019-03-02T05:03:13.675Z,3.94
2019-03-02T05:04:13.615Z,3.87
2019-03-02T05:05:13.562Z,3.96
2019-03-02T05:06:15.687Z,3.87
2019-03-02T05:07:13.489Z,3.93
2019-03-02T05:08:13.462Z,3.91
2019-03-02T05:09:13.644Z,3.97
2019-03-02T05:10:13.390Z,3.94
2019-03-02T05:11:13.305Z,3.94
2019-03-02T05:12:14.675Z,3.98
2019-03-02T05:13:13.233Z,3.97
2019-03-02T05:14:13.199Z,3.98
2019-03-02T05:15:16.051Z,4.04
2019-03-02T05:16:13.126Z,4.05
2019-03-02T05:17:13.061Z,3.98
2019-03-02T05:18:14.787Z,4.02
2019-03-02T05:19:13.001Z,4.00
2019-03-02T05:20:13.022Z,4.04
2019-03-02T05:21:12.905Z,4.00
2019-03-02T05:22:15.475Z,4.02
2019-03-02T05:23:12.858Z,4.00
2019-03-02T05:24:12.791Z,4.00
2019-03-02T05:25:15.669Z,3.94
2019-03-02T05:26:12.702Z,4.04
2019-03-02T05:27:12.683Z,4.02
2019-03-02T05:28:12.618Z,4.00
2019-03-02T05:29:14.889Z,3.98
2019-03-02T05:30:12.576Z,4.04
2019-03-02T05:31:13.861Z,4.00
2019-03-02T05:32:15.598Z,4.02
2019-03-02T05:33:12.453Z,4.00
2019-03-02T05:34:12.393Z,4.04
2019-03-02T05:35:15.568Z,4.08
2019-03-02T05:36:12.320Z,4.06
2019-03-02T05:37:12.278Z,3.96
2019-03-02T05:38:15.172Z,4.00
2019-03-02T05:39:13.929Z,4.04
2019-03-02T05:40:12.142Z,4.05
2019-03-02T05:41:12.110Z,4.04
2019-03-02T05:42:13.621Z,4.02
2019-03-02T05:43:12.018Z,4.02
2019-03-02T05:44:12.019Z,3.96
2019-03-02T05:45:11.997Z,4.02
2019-03-02T05:46:11.907Z,4.02
2019-03-02T05:47:11.863Z,3.98
2019-03-02T05:48:11.826Z,3.94
2019-03-02T05:49:11.820Z,3.98
2019-03-02T05:50:11.748Z,3.97
2019-03-02T05:51:11.695Z,3.94
2019-03-02T05:52:14.557Z,4.04
2019-03-02T05:53:11.623Z,3.97
2019-03-02T05:54:11.579Z,4.00
2019-03-02T05:55:14.240Z,3.98
2019-03-02T05:56:11.498Z,3.96
2019-03-02T05:57:11.461Z,4.00
2019-03-02T05:58:12.512Z,3.98
2019-03-02T05:59:11.400Z,3.98
2019-03-02T06:00:11.342Z,4.04
2019-03-02T06:01:11.317Z,4.05
2019-03-02T06:02:13.920Z,4.00
2019-03-02T06:03:11.237Z,4.02
2019-03-02T06:04:11.206Z,4.02
2019-03-02T06:05:11.234Z,4.02
2019-03-02T06:06:11.126Z,3.98
2019-03-02T06:07:11.062Z,4.00
2019-03-02T06:08:11.042Z,3.94
2019-03-02T06:09:13.982Z,4.00
2019-03-02T06:10:10.931Z,4.00
2019-03-02T06:11:10.901Z,3.98
2019-03-02T06:12:11.940Z,4.00
2019-03-02T06:13:10.819Z,4.06
2019-03-02T06:14:10.779Z,4.05
2019-03-02T06:15:10.766Z,4.04
2019-03-02T06:16:10.699Z,4.06
2019-03-02T06:17:10.672Z,4.05
2019-03-02T06:18:10.624Z,3.97
2019-03-02T06:19:10.577Z,3.97
2019-03-02T06:20:10.532Z,4.08
2019-03-02T06:21:10.855Z,4.02
2019-03-02T06:22:10.453Z,4.05
2019-03-02T06:23:10.535Z,3.98
2019-03-02T06:24:10.379Z,4.06
2019-03-02T06:25:19.519Z,4.06
2019-03-02T06:26:10.374Z,4.06
2019-03-02T06:27:10.886Z,4.06
2019-03-02T06:28:10.222Z,4.08
2019-03-02T06:29:10.204Z,4.16
2019-03-02T06:30:10.129Z,4.11
2019-03-02T06:31:10.095Z,4.11
2019-03-02T06:32:10.046Z,4.09
2019-03-02T06:33:10.000Z,4.12
2019-03-02T06:34:09.963Z,4.12
2019-03-02T06:35:09.943Z,4.12
2019-03-02T06:36:10.177Z,4.14
2019-03-02T06:37:09.868Z,4.14
2019-03-02T06:38:09.815Z,4.16
2019-03-02T06:39:09.777Z,4.16
2019-03-02T06:40:09.755Z,4.12
2019-03-02T06:41:09.689Z,4.15
2019-03-02T06:42:09.976Z,4.15
2019-03-02T06:43:09.623Z,4.26
2019-03-02T06:44:09.667Z,4.18
2019-03-02T06:45:10.099Z,4.15
2019-03-02T06:46:09.481Z,4.23
2019-03-02T06:47:09.454Z,4.27
2019-03-02T06:48:09.722Z,4.26
2019-03-02T06:49:09.370Z,4.18
2019-03-02T06:50:09.372Z,4.15
2019-03-02T06:51:11.217Z,4.24
2019-03-02T06:52:09.254Z,4.32
2019-03-02T06:53:09.193Z,4.30
2019-03-02T06:54:12.860Z,4.20
2019-03-02T06:55:09.132Z,4.29
2019-03-02T06:56:09.104Z,4.33
2019-03-02T06:57:10.749Z,4.36
2019-03-02T06:58:08.992Z,4.32
2019-03-02T06:59:08.958Z,4.30
2019-03-02T07:00:10.645Z,4.33
2019-03-02T07:01:09.001Z,4.32
2019-03-02T07:02:08.863Z,4.29
2019-03-02T07:03:10.157Z,4.37
2019-03-02T07:04:10.746Z,4.41
2019-03-02T07:05:08.732Z,4.42
2019-03-02T07:06:11.585Z,4.45
2019-03-02T07:07:08.647Z,4.44
2019-03-02T07:08:08.603Z,4.45
2019-03-02T07:09:09.629Z,4.37
2019-03-02T07:10:08.524Z,4.42
2019-03-02T07:11:08.483Z,4.42
2019-03-02T07:12:09.437Z,4.50
2019-03-02T07:13:08.404Z,4.50
2019-03-02T07:14:08.375Z,4.45
2019-03-02T07:15:09.244Z,4.51
2019-03-02T07:16:08.321Z,4.54
2019-03-02T07:17:08.235Z,4.52
2019-03-02T07:18:08.237Z,4.54
2019-03-02T07:19:08.161Z,4.47
2019-03-02T07:20:08.111Z,4.60
2019-03-02T07:21:08.084Z,4.51
2019-03-02T07:22:08.032Z,4.50
2019-03-02T07:23:08.017Z,4.52
2019-03-02T07:24:07.964Z,4.51
2019-03-02T07:25:07.924Z,4.59
2019-03-02T07:26:07.885Z,4.52
2019-03-02T07:27:07.864Z,4.55
2019-03-02T07:28:07.799Z,4.55
2019-03-02T07:29:07.765Z,4.69
2019-03-02T07:30:07.712Z,4.66
2019-03-02T07:31:07.747Z,4.65
2019-03-02T07:32:07.654Z,4.67
2019-03-02T07:33:07.881Z,4.59
2019-03-02T07:34:08.744Z,4.62
2019-03-02T07:35:07.533Z,4.72
2019-03-02T07:36:07.478Z,4.58
2019-03-02T07:37:09.158Z,4.66
2019-03-02T07:38:08.432Z,4.52
2019-03-02T07:39:07.385Z,4.69
2019-03-02T07:40:09.129Z,4.70
2019-03-02T07:41:07.804Z,4.67
2019-03-02T07:42:07.246Z,4.70
2019-03-02T07:43:09.724Z,4.60
2019-03-02T07:44:07.173Z,4.62
2019-03-02T07:45:07.131Z,4.70
2019-03-02T07:46:08.044Z,4.70
2019-03-02T07:47:07.059Z,4.73
2019-03-02T07:48:07.008Z,4.67
2019-03-02T07:49:09.158Z,4.70
2019-03-02T07:50:06.922Z,4.72
2019-03-02T07:51:06.886Z,4.65
2019-03-02T07:52:06.840Z,4.70
2019-03-02T07:53:06.808Z,4.67
2019-03-02T07:54:07.357Z,4.66
2019-03-02T07:55:06.762Z,4.78
2019-03-02T07:56:06.795Z,4.86
2019-03-02T07:57:08.766Z,4.96
2019-03-02T07:58:06.618Z,4.86
2019-03-02T07:59:06.580Z,5.00
2019-03-02T08:00:06.697Z,5.12
2019-03-02T08:01:06.488Z,5.13
2019-03-02T08:02:07.373Z,5.20
2019-03-02T08:03:06.416Z,5.25
2019-03-02T08:04:06.403Z,5.27
2019-03-02T08:05:06.325Z,5.24
2019-03-02T08:06:06.343Z,5.31
2019-03-02T08:07:06.244Z,5.28
2019-03-02T08:08:07.057Z,5.43
2019-03-02T08:09:06.190Z,5.48
2019-03-02T08:10:06.130Z,5.38
2019-03-02T08:11:06.186Z,5.40
2019-03-02T08:12:06.049Z,5.49
2019-03-02T08:13:06.025Z,5.46
2019-03-02T08:14:08.896Z,5.51
2019-03-02T08:15:05.935Z,5.46
2019-03-02T08:16:05.919Z,5.43
2019-03-02T08:17:05.839Z,5.31
2019-03-02T08:18:05.815Z,5.42
2019-03-02T08:19:05.778Z,5.35
2019-03-02T08:20:05.836Z,5.51
2019-03-02T08:21:05.716Z,5.60
2019-03-02T08:22:07.832Z,5.54
2019-03-02T08:23:05.607Z,5.38
2019-03-02T08:24:05.584Z,5.38
2019-03-02T08:25:05.533Z,5.38
2019-03-02T08:26:14.806Z,5.35
2019-03-02T08:28:00.064Z,5.30
2019-03-02T08:28:59.481Z,5.30
2019-03-02T08:30:51.887Z,5.38
2019-03-02T08:31:51.837Z,5.30
2019-03-02T08:33:46.040Z,5.22
2019-03-02T08:34:46.372Z,5.24
2019-03-02T08:36:38.697Z,5.20
2019-03-02T08:37:38.352Z,5.22
2019-03-02T08:39:31.308Z,5.20
2019-03-02T08:40:30.672Z,5.18
2019-03-02T08:42:24.868Z,5.20
2019-03-02T08:43:23.772Z,5.20
2019-03-02T08:45:17.852Z,5.18
2019-03-02T08:46:16.666Z,5.20
2019-03-02T08:48:10.144Z,5.31
2019-03-02T08:49:10.978Z,5.38
2019-03-02T08:51:05.898Z,5.36
2019-03-02T08:52:03.858Z,5.45
2019-03-02T08:53:58.794Z,5.38
2019-03-02T08:54:58.319Z,5.30
2019-03-02T08:56:51.361Z,5.28
2019-03-02T08:57:49.883Z,5.46
2019-03-02T08:59:44.338Z,5.57
2019-03-02T09:00:43.230Z,5.43
2019-03-02T09:02:37.586Z,5.53
2019-03-02T09:03:37.184Z,5.54
2019-03-02T09:05:43.362Z,5.61
2019-03-02T09:06:30.847Z,5.78
2019-03-02T09:08:23.151Z,5.86
2019-03-02T09:09:22.786Z,5.86
2019-03-02T09:11:16.286Z,5.96
2019-03-02T09:12:17.904Z,5.86
2019-03-02T09:14:12.391Z,6.00
2019-03-02T09:15:08.212Z,6.08
2019-03-02T09:17:02.997Z,6.19
2019-03-02T09:18:01.756Z,6.17
2019-03-02T09:19:59.573Z,6.30
2019-03-02T09:20:55.152Z,6.38
2019-03-02T09:22:48.517Z,6.44
2019-03-02T09:23:47.015Z,6.41
2019-03-02T09:25:41.244Z,6.41
2019-03-02T09:26:40.108Z,6.44
2019-03-02T09:28:35.915Z,6.55
2019-03-02T09:29:34.828Z,6.67
2019-03-02T09:31:28.657Z,6.92
2019-03-02T09:32:29.409Z,6.79
2019-03-02T09:34:21.628Z,6.76
2019-03-02T09:35:20.951Z,6.91
2019-03-02T09:37:16.195Z,6.88
2019-03-02T09:38:16.966Z,6.87
2019-03-02T09:40:10.113Z,6.54
2019-03-02T09:41:11.643Z,6.52
2019-03-02T09:43:03.040Z,6.87
2019-03-02T09:44:02.402Z,6.81
2019-03-02T09:45:57.047Z,7.02
2019-03-02T09:46:56.955Z,6.98
2019-03-02T09:48:50.054Z,7.02
2019-03-02T09:49:48.698Z,6.73
2019-03-02T09:51:48.141Z,6.79
2019-03-02T09:52:45.905Z,6.79
2019-03-02T09:54:38.829Z,6.98
2019-03-02T09:55:37.991Z,7.06
2019-03-02T09:57:47.472Z,7.05
2019-03-02T09:58:44.429Z,7.06
2019-03-02T10:00:40.196Z,7.17
2019-03-02T10:01:39.222Z,7.16
2019-03-02T10:03:33.255Z,7.39
2019-03-02T10:04:35.855Z,7.48
2019-03-02T10:06:28.863Z,7.50
2019-03-02T10:07:27.646Z,7.34
2019-03-02T10:10:20.528Z,7.17
2019-03-02T10:12:16.672Z,7.43
2019-03-02T10:15:30.698Z,7.74
2019-03-02T10:16:20.442Z,7.43
2019-03-02T10:18:19.760Z,7.58
2019-03-02T10:19:19.412Z,7.61
2019-03-02T10:23:32.479Z,8.01
2019-03-02T10:24:31.387Z,8.04
2019-03-02T10:26:26.736Z,8.16
2019-03-02T10:27:25.423Z,8.23
2019-03-02T10:29:21.682Z,8.25
2019-03-02T10:30:22.218Z,8.23
2019-03-02T10:32:17.233Z,8.26
2019-03-02T10:35:09.051Z,7.52
2019-03-02T10:36:09.929Z,7.39
2019-03-02T10:38:02.873Z,7.32
2019-03-02T10:39:01.335Z,7.30
2019-03-02T10:40:56.669Z,7.35
2019-03-02T10:42:00.457Z,7.50
2019-03-02T10:43:49.988Z,7.50
2019-03-02T10:44:49.993Z,7.49
2019-03-02T10:46:44.591Z,7.39
2019-03-02T10:47:42.509Z,7.42
2019-03-02T10:49:38.376Z,7.45
2019-03-02T10:50:36.410Z,7.42
2019-03-02T10:52:40.663Z,7.13
2019-03-02T10:53:31.359Z,7.23
2019-03-02T10:55:24.877Z,7.21
2019-03-02T10:56:24.804Z,7.27
2019-03-02T10:58:17.011Z,7.24
2019-03-02T10:59:17.409Z,7.30
2019-03-02T11:01:13.060Z,7.23
2019-03-02T11:02:11.955Z,7.32
2019-03-02T11:04:04.961Z,7.46
2019-03-02T11:05:04.727Z,7.55
2019-03-02T11:06:57.462Z,7.68
2019-03-02T11:07:57.925Z,7.75
2019-03-02T11:09:54.999Z,7.93
2019-03-02T11:10:54.076Z,7.86
2019-03-02T11:12:47.425Z,7.75
2019-03-02T11:13:46.846Z,7.87
2019-03-02T11:15:43.417Z,7.68
2019-03-02T11:16:41.047Z,7.71
2019-03-02T11:18:45.036Z,7.92
2019-03-02T11:19:47.422Z,7.89
2019-03-02T11:21:40.054Z,7.90
2019-03-02T11:22:39.935Z,7.97
2019-03-02T11:24:32.462Z,7.93
2019-03-02T11:25:32.681Z,7.95
2019-03-02T11:27:26.025Z,8.05
2019-03-02T11:28:25.298Z,8.22
2019-03-02T11:30:19.338Z,8.43
2019-03-02T11:31:19.103Z,8.33
2019-03-02T11:33:13.493Z,8.25
2019-03-02T11:34:12.110Z,8.37
2019-03-02T11:36:10.637Z,8.30
2019-03-02T11:37:06.815Z,8.38
2019-03-02T11:39:01.227Z,8.59
2019-03-02T11:40:00.770Z,8.61
2019-03-02T11:41:55.564Z,8.61
2019-03-02T11:42:54.777Z,8.74
2019-03-02T11:44:48.066Z,8.63
2019-03-02T11:45:47.030Z,8.56
2019-03-02T11:47:41.804Z,8.66
2019-03-02T11:48:41.658Z,8.83
2019-03-02T11:50:35.766Z,8.61
2019-03-02T11:51:35.583Z,8.59
2019-03-02T11:53:29.204Z,8.68
2019-03-02T11:54:29.683Z,8.70
2019-03-02T11:56:26.586Z,8.53
2019-03-02T11:57:21.213Z,8.63
2019-03-02T11:59:15.108Z,8.86
2019-03-02T12:00:13.873Z,8.77
2019-03-02T12:02:15.412Z,8.61
2019-03-02T12:03:07.356Z,8.62
2019-03-02T12:05:00.437Z,8.52
2019-03-02T12:06:05.105Z,8.34
2019-03-02T12:07:53.541Z,8.22
2019-03-02T12:08:54.924Z,8.16
2019-03-02T12:10:46.974Z,8.10
2019-03-02T12:11:46.854Z,8.02
2019-03-02T12:13:53.581Z,8.05
2019-03-02T12:14:51.889Z,8.01
2019-03-02T12:16:45.775Z,8.16
2019-03-02T12:17:44.716Z,7.98
2019-03-02T12:19:39.996Z,8.02
2019-03-02T12:20:41.266Z,8.11
2019-03-02T12:22:34.389Z,8.23
2019-03-02T12:23:34.041Z,8.30
2019-03-02T12:25:30.964Z,8.52
2019-03-02T12:26:27.294Z,8.53
2019-03-02T12:28:21.888Z,8.58
2019-03-02T12:29:20.341Z,8.61
2019-03-02T12:31:14.929Z,8.63
2019-03-02T12:32:14.678Z,8.63
2019-03-02T12:34:08.925Z,8.59
2019-03-02T12:35:09.969Z,8.56
2019-03-02T12:37:03.380Z,8.43
2019-03-02T12:38:02.616Z,8.52
2019-03-02T12:40:02.775Z,8.61
2019-03-02T12:40:56.197Z,8.59
2019-03-02T12:42:51.350Z,8.22
2019-03-02T12:43:49.600Z,8.45
2019-03-02T12:45:43.817Z,8.43
2019-03-02T12:46:43.042Z,8.38
2019-03-02T12:48:37.134Z,8.37
2019-03-02T12:49:36.899Z,8.23
2019-03-02T12:51:30.262Z,8.25
2019-03-02T12:52:29.448Z,8.25
2019-03-02T12:54:24.837Z,8.16
2019-03-02T12:55:24.043Z,8.23
2019-03-02T12:57:17.879Z,8.19
2019-03-02T12:58:20.030Z,8.16
2019-03-02T13:00:11.708Z,8.16
2019-03-02T13:01:11.232Z,8.19
2019-03-02T13:03:04.171Z,8.28
2019-03-02T13:04:05.610Z,8.22
2019-03-02T13:05:58.801Z,8.37
2019-03-02T13:06:57.257Z,8.20
2019-03-02T13:08:52.745Z,8.15
2019-03-02T13:09:51.428Z,8.12
2019-03-02T13:11:45.384Z,8.22
2019-03-02T13:12:45.930Z,8.23
2019-03-02T13:14:38.754Z,8.43
2019-03-02T13:15:37.822Z,8.47
2019-03-02T13:17:33.048Z,8.61
2019-03-02T13:18:31.037Z,8.50
2019-03-02T13:20:25.149Z,8.56
2019-03-02T13:21:24.148Z,8.55
2019-03-02T13:23:17.955Z,8.62
2019-03-02T13:24:19.154Z,8.92
2019-03-02T13:26:13.667Z,8.62
2019-03-02T13:27:11.869Z,8.53
2019-03-02T13:29:05.779Z,8.45
2019-03-02T13:30:05.057Z,8.55
2019-03-02T13:31:58.697Z,8.50
2019-03-02T13:32:58.066Z,8.37
2019-03-02T13:34:51.148Z,8.25
2019-03-02T13:35:59.924Z,8.33
2019-03-02T13:37:45.648Z,8.22
2019-03-02T13:38:45.028Z,8.19
2019-03-02T13:40:40.102Z,8.18
2019-03-02T13:41:38.849Z,8.23
2019-03-02T13:43:35.377Z,8.20
2019-03-02T13:44:38.780Z,8.16
2019-03-02T13:46:31.166Z,8.25
2019-03-02T13:47:29.303Z,8.23
2019-03-02T13:49:23.703Z,8.34
2019-03-02T13:50:23.988Z,8.48
2019-03-02T13:52:29.161Z,8.41
2019-03-02T13:53:27.835Z,8.44
2019-03-02T13:55:23.843Z,8.43
2019-03-02T13:56:26.318Z,8.52
2019-03-02T13:58:18.030Z,8.50
2019-03-02T13:59:15.353Z,8.47
2019-03-02T14:01:08.910Z,8.47
2019-03-02T14:02:08.254Z,8.37
2019-03-02T14:04:01.996Z,8.36
2019-03-02T14:05:05.715Z,8.36
2019-03-02T14:06:57.951Z,8.44
2019-03-02T14:07:55.773Z,8.25
2019-03-02T14:09:49.718Z,8.37
2019-03-02T14:10:48.269Z,8.30
2019-03-02T14:12:43.456Z,8.28
2019-03-02T14:13:43.611Z,8.45
2019-03-02T14:15:36.326Z,8.47
2019-03-02T14:16:36.248Z,8.45
2019-03-02T14:18:29.880Z,8.43
2019-03-02T14:19:29.232Z,8.43
2019-03-02T14:21:22.283Z,8.58
2019-03-02T14:22:22.661Z,8.62
2019-03-02T14:24:15.590Z,8.47
2019-03-02T14:25:15.036Z,8.61
2019-03-02T14:27:08.195Z,8.43
2019-03-02T14:28:08.539Z,8.50
2019-03-02T14:30:01.127Z,8.61
2019-03-02T14:31:02.197Z,8.66
2019-03-02T14:32:56.281Z,8.84
2019-03-02T14:33:56.219Z,8.94
2019-03-02T14:35:47.699Z,8.77
2019-03-02T14:36:47.357Z,8.77
2019-03-02T14:38:41.798Z,8.80
2019-03-02T14:39:41.324Z,8.68
2019-03-02T14:41:33.894Z,8.65
2019-03-02T14:42:33.734Z,8.74
2019-03-02T14:44:30.148Z,8.81
2019-03-02T14:45:29.715Z,8.48
2019-03-02T14:47:23.621Z,8.53
2019-03-02T14:48:22.246Z,8.55
2019-03-02T14:50:14.894Z,8.59
2019-03-02T14:51:16.974Z,8.61
2019-03-02T14:53:10.062Z,8.61
2019-03-02T14:54:09.099Z,8.59
2019-03-02T14:56:06.173Z,8.55
2019-03-02T14:57:02.716Z,8.63
2019-03-02T14:58:57.030Z,8.66
2019-03-02T14:59:56.222Z,8.61
2019-03-02T15:01:52.381Z,8.50
2019-03-02T15:02:52.503Z,8.43
2019-03-02T15:04:44.770Z,8.48
2019-03-02T15:05:43.516Z,8.45
2019-03-02T15:07:36.700Z,8.43
2019-03-02T15:08:37.458Z,8.40
2019-03-02T15:10:29.653Z,8.43
2019-03-02T15:11:29.497Z,8.36
2019-03-02T15:13:25.963Z,8.41
2019-03-02T15:14:22.563Z,8.38
2019-03-02T15:16:36.511Z,8.37
2019-03-02T15:17:31.174Z,8.44
2019-03-02T15:19:26.988Z,8.34
2019-03-02T15:20:24.096Z,8.22
2019-03-02T15:22:20.542Z,8.25
2019-03-02T15:23:17.251Z,8.19
2019-03-02T15:25:10.831Z,8.15
2019-03-02T15:26:10.449Z,8.07
2019-03-02T15:28:03.688Z,8.00
2019-03-02T15:29:03.285Z,8.00
2019-03-02T15:30:59.207Z,7.95
2019-03-02T15:31:56.772Z,7.97
2019-03-02T15:33:50.562Z,8.00
2019-03-02T15:34:49.945Z,7.92
2019-03-02T15:36:44.136Z,7.89